Weather at Leesburg Executive Airport

Public forecast

Using degrees Fahrenheit for public forecast. Weather courtesy of forecast.io.

Current aviation weather report (METAR) for Leesburg Executive Airport

Retrieved 2021/03/04 00:35 UTC (54 minutes ago):

KJYO 040035Z AUTO 28006KT 10SM CLR 09/M03 A2990 RMK AO2

Closest aviation forecast (TAF) to Leesburg Executive Airport

Forecast is more than 6 hours old.

Closest forecast is Washington Dulles International Airport, 9.3 nm (17.3 km) SSE. Retrieved 2021/03/03 18:22 UTC (7 hours ago):

TAF KIAD 031720Z 0318/0424 28007KT P6SM SKC FM032300 24006KT P6SM FEW250 FM040300 27006KT P6SM FEW250 FM040600 30006KT P6SM FEW250 FM041400 32012G20KT P6SM FEW250